Time;durP1;ratioP1;P1;durP2;ratioP2;P2;SDS_P1;SDS_P2;PMS_P1;PMS_P2;Temp;Humidity;BMP_temperature;BMP_pressure;BME280_temperature;BME280_humidity;BME280_pressure;Samples;Min_cycle;Max_cycle;Signal;HPM_P1;HPM_P2
2022/03/15 00:00:44;;;;;;;1999.90;999.90;;;7.60;99.90;;;;;;5072111;28;20795;-70
2022/03/15 00:03:09;;;;;;;1999.90;999.90;;;7.50;99.90;;;;;;5072067;28;20441;-70
2022/03/15 00:05:35;;;;;;;1999.90;999.90;;;7.50;99.90;;;;;;5071897;28;20524;-71
2022/03/15 00:08:00;;;;;;;1999.90;999.90;;;7.50;99.90;;;;;;5072085;28;20163;-70
2022/03/15 00:10:27;;;;;;;1999.90;999.90;;;7.60;99.90;;;;;;5072076;28;20637;-70
2022/03/15 00:12:56;;;;;;;1999.90;999.90;;;7.70;99.90;;;;;;5072121;28;20167;-70
2022/03/15 00:15:22;;;;;;;1999.90;999.90;;;7.70;99.90;;;;;;5070461;28;20447;-70
2022/03/15 00:17:48;;;;;;;1999.90;999.90;;;7.70;99.90;;;;;;5072048;28;20421;-70
2022/03/15 00:20:18;;;;;;;1999.90;999.90;;;7.80;99.90;;;;;;5072147;28;20437;-72
2022/03/15 00:22:44;;;;;;;1999.90;999.90;;;7.70;99.90;;;;;;5072048;28;20491;-72
2022/03/15 00:25:11;;;;;;;1999.90;999.90;;;7.60;99.90;;;;;;5071919;28;20406;-72
2022/03/15 00:27:38;;;;;;;1999.90;999.90;;;7.50;99.90;;;;;;5072127;28;20401;-72
2022/03/15 00:30:06;;;;;;;1999.90;999.90;;;7.40;99.90;;;;;;5071930;28;20402;-72
2022/03/15 00:32:33;;;;;;;1999.90;999.90;;;7.40;99.90;;;;;;5071907;28;20457;-72
2022/03/15 00:34:59;;;;;;;1999.90;999.90;;;7.40;99.90;;;;;;5071730;28;20410;-72
2022/03/15 00:37:25;;;;;;;1999.90;999.90;;;7.40;99.90;;;;;;5072017;28;20410;-70
2022/03/15 00:39:51;;;;;;;1999.90;999.90;;;7.40;99.90;;;;;;5071898;28;20791;-72
2022/03/15 00:42:17;;;;;;;1999.90;999.90;;;7.40;99.90;;;;;;5071712;28;20229;-72
2022/03/15 00:44:43;;;;;;;1999.90;999.90;;;7.30;99.90;;;;;;5073910;28;20171;-71
2022/03/15 00:47:09;;;;;;;1999.90;999.90;;;7.30;99.90;;;;;;5076244;28;20771;-72
2022/03/15 00:49:35;;;;;;;1999.90;999.90;;;7.20;99.90;;;;;;5076123;28;20795;-72
2022/03/15 00:52:02;;;;;;;1999.90;999.90;;;7.10;99.90;;;;;;5075964;28;20421;-72
2022/03/15 00:54:28;;;;;;;1999.90;999.90;;;7.20;99.90;;;;;;5075905;28;20173;-71
2022/03/15 00:56:54;;;;;;;1999.90;999.90;;;7.20;99.90;;;;;;5076104;28;20459;-71
2022/03/15 00:59:20;;;;;;;1999.90;999.90;;;7.20;99.90;;;;;;5075769;28;20432;-72
2022/03/15 01:01:46;;;;;;;1999.90;999.90;;;7.20;99.90;;;;;;5075547;28;20480;-70
2022/03/15 01:04:12;;;;;;;1999.90;999.90;;;7.20;99.90;;;;;;5075602;28;20172;-70
2022/03/15 01:06:39;;;;;;;1999.90;999.90;;;7.30;99.90;;;;;;5075651;28;20432;-72
2022/03/15 01:09:06;;;;;;;1999.90;999.90;;;7.30;99.90;;;;;;5075715;28;20455;-72
2022/03/15 01:11:32;;;;;;;1999.90;999.90;;;7.20;99.90;;;;;;5075394;28;20436;-72
2022/03/15 01:13:57;;;;;;;1999.90;999.90;;;7.10;99.90;;;;;;5075321;28;20406;-72
2022/03/15 01:16:23;;;;;;;1999.90;999.90;;;7.10;99.90;;;;;;5073892;28;20404;-72
2022/03/15 01:18:49;;;;;;;1999.90;999.90;;;7.10;99.90;;;;;;5075433;28;20546;-72
2022/03/15 01:21:15;;;;;;;1999.90;999.90;;;7.00;99.90;;;;;;5075256;28;20441;-71
2022/03/15 01:23:41;;;;;;;1999.90;999.90;;;7.00;99.90;;;;;;5075329;28;20672;-72
2022/03/15 01:26:07;;;;;;;1999.90;999.90;;;7.00;99.90;;;;;;5075012;28;20660;-72
2022/03/15 01:28:33;;;;;;;1999.90;999.90;;;7.00;99.90;;;;;;5075077;28;20405;-71
2022/03/15 01:30:59;;;;;;;1999.90;999.90;;;7.00;99.90;;;;;;5075059;28;20183;-71
2022/03/15 01:33:25;;;;;;;1999.90;999.90;;;7.00;99.90;;;;;;5075026;28;20425;-72
2022/03/15 01:35:50;;;;;;;1999.90;999.90;;;6.90;99.90;;;;;;5074753;28;20408;-72
2022/03/15 01:38:16;;;;;;;1999.90;999.90;;;6.90;99.90;;;;;;5075005;28;20793;-72
2022/03/15 01:40:42;;;;;;;1999.90;999.90;;;6.90;99.90;;;;;;5074702;28;20467;-72
2022/03/15 01:43:08;;;;;;;1999.90;999.90;;;7.00;99.90;;;;;;5074790;28;20233;-72
2022/03/15 01:45:38;;;;;;;1999.90;999.90;;;7.00;99.90;;;;;;5074563;28;20167;-72
2022/03/15 01:48:05;;;;;;;1999.90;999.90;;;7.00;99.90;;;;;;5074793;28;20168;-72
2022/03/15 01:50:31;;;;;;;1999.90;999.90;;;7.10;99.90;;;;;;5074657;28;20425;-71
2022/03/15 01:52:57;;;;;;;1999.90;999.90;;;7.10;99.90;;;;;;5074780;28;20891;-71
2022/03/15 01:55:23;;;;;;;1999.90;999.90;;;7.10;99.90;;;;;;5073030;28;20446;-71
2022/03/15 01:57:50;;;;;;;1999.90;999.90;;;7.10;99.90;;;;;;5074540;28;20405;-72
2022/03/15 02:00:18;;;;;;;1999.90;999.90;;;7.00;99.90;;;;;;5074763;28;20421;-72
2022/03/15 02:02:45;;;;;;;1999.90;999.90;;;7.00;99.90;;;;;;5074475;28;20456;-72
2022/03/15 02:05:11;;;;;;;1999.90;999.90;;;7.10;99.90;;;;;;5074180;28;20409;-71
2022/03/15 02:07:38;;;;;;;1999.90;999.90;;;7.00;99.90;;;;;;5074401;28;20419;-70
2022/03/15 02:10:05;;;;;;;1999.90;999.90;;;6.90;99.90;;;;;;5074321;28;20413;-71
2022/03/15 02:12:32;;;;;;;1999.90;999.90;;;6.90;99.90;;;;;;5074015;28;20434;-72
2022/03/15 02:15:01;;;;;;;1999.90;999.90;;;6.80;99.90;;;;;;5074033;28;20462;-71
2022/03/15 02:17:27;;;;;;;1999.90;999.90;;;6.80;99.90;;;;;;5074214;28;20412;-72
2022/03/15 02:19:53;;;;;;;1999.90;999.90;;;6.70;99.90;;;;;;5074272;28;20770;-72
2022/03/15 02:22:19;;;;;;;1999.90;999.90;;;6.70;99.90;;;;;;5074141;28;20460;-72
2022/03/15 02:24:45;;;;;;;1999.90;999.90;;;6.60;99.90;;;;;;5073857;28;20642;-72
2022/03/15 02:27:11;;;;;;;1999.90;999.90;;;6.60;99.90;;;;;;5074005;28;20475;-72
2022/03/15 02:29:36;;;;;;;1999.90;999.90;;;6.60;99.90;;;;;;5074076;28;20894;-71
2022/03/15 02:32:02;;;;;;;1999.90;999.90;;;6.50;99.90;;;;;;5073837;28;20648;-71
2022/03/15 02:34:28;;;;;;;1999.90;999.90;;;6.50;99.90;;;;;;5073555;28;20182;-71
2022/03/15 02:36:54;;;;;;;1999.90;999.90;;;6.60;99.90;;;;;;5073981;28;20174;-71
2022/03/15 02:39:19;;;;;;;1999.90;999.90;;;6.60;99.90;;;;;;5073951;28;20171;-71
2022/03/15 02:41:45;;;;;;;1999.90;999.90;;;6.60;99.90;;;;;;5073486;28;20210;-72
2022/03/15 02:44:11;;;;;;;1999.90;999.90;;;6.70;99.90;;;;;;5072201;28;20269;-71
2022/03/15 02:46:39;;;;;;;1999.90;999.90;;;6.70;99.90;;;;;;5073773;28;20216;-71
2022/03/15 02:49:06;;;;;;;1999.90;999.90;;;6.60;99.90;;;;;;5073689;28;20414;-71
2022/03/15 02:51:31;;;;;;;1999.90;999.90;;;6.60;99.90;;;;;;5073555;28;20437;-72
2022/03/15 02:53:58;;;;;;;1999.90;999.90;;;6.70;99.90;;;;;;5073451;28;20409;-72
2022/03/15 02:56:24;;;;;;;1999.90;999.90;;;6.70;99.90;;;;;;5073293;28;20170;-71
2022/03/15 02:58:49;;;;;;;1999.90;999.90;;;6.70;99.90;;;;;;5073470;28;20871;-72
2022/03/15 03:01:15;;;;;;;1999.90;999.90;;;6.80;99.90;;;;;;5073315;28;20207;-71
2022/03/15 03:03:41;;;;;;;1999.90;999.90;;;6.80;99.90;;;;;;5073237;28;20217;-72
2022/03/15 03:06:07;;;;;;;1999.90;999.90;;;6.80;99.90;;;;;;5072991;28;20406;-71
2022/03/15 03:08:34;;;;;;;1999.90;999.90;;;6.80;99.90;;;;;;5072927;28;20405;-71
2022/03/15 03:11:00;;;;;;;1999.90;999.90;;;6.80;99.90;;;;;;5073013;28;20214;-71
2022/03/15 03:13:26;;;;;;;1999.90;999.90;;;6.90;99.90;;;;;;5073148;28;20401;-71
2022/03/15 03:15:57;;;;;;;1999.90;999.90;;;6.90;99.90;;;;;;5072753;28;20406;-71
2022/03/15 03:18:32;;;;;;;1999.90;999.90;;;6.80;99.90;;;;;;5073119;28;20413;-72
2022/03/15 03:21:01;;;;;;;1999.90;999.90;;;6.80;99.90;;;;;;5073042;28;20937;-71
2022/03/15 03:23:28;;;;;;;1999.90;999.90;;;6.70;99.90;;;;;;5072816;28;20526;-71
2022/03/15 03:25:56;;;;;;;1999.90;999.90;;;6.60;99.90;;;;;;5072607;28;20409;-72
2022/03/15 03:28:22;;;;;;;1999.90;999.90;;;6.70;99.90;;;;;;5072883;28;20410;-71
2022/03/15 03:30:48;;;;;;;1999.90;999.90;;;6.60;99.90;;;;;;5072744;28;20421;-71
2022/03/15 03:33:15;;;;;;;1999.90;999.90;;;6.70;99.90;;;;;;5072888;28;20425;-71
2022/03/15 03:35:43;;;;;;;1999.90;999.90;;;6.70;99.90;;;;;;5072429;28;20178;-72
2022/03/15 03:38:09;;;;;;;1999.90;999.90;;;6.80;99.90;;;;;;5072657;28;20413;-71
2022/03/15 03:40:34;;;;;;;1999.90;999.90;;;6.80;99.90;;;;;;5072348;28;20507;-71
2022/03/15 03:43:00;;;;;;;1999.90;999.90;;;6.70;99.90;;;;;;5072545;28;20544;-72
2022/03/15 03:45:26;;;;;;;1999.90;999.90;;;6.70;99.90;;;;;;5072304;28;20573;-72
2022/03/15 03:47:52;;;;;;;1999.90;999.90;;;6.70;99.90;;;;;;5072572;28;20444;-72
2022/03/15 03:50:19;;;;;;;1999.90;999.90;;;6.70;99.90;;;;;;5072379;28;20899;-71
2022/03/15 03:52:44;;;;;;;1999.90;999.90;;;6.80;99.90;;;;;;5072390;28;20224;-72
2022/03/15 03:55:10;;;;;;;1999.90;999.90;;;6.90;99.90;;;;;;5072050;28;20818;-71
2022/03/15 03:57:36;;;;;;;1999.90;999.90;;;6.90;99.90;;;;;;5072311;28;20178;-71
2022/03/15 04:00:04;;;;;;;1999.90;999.90;;;6.90;99.90;;;;;;5072267;28;20167;-72
2022/03/15 04:02:30;;;;;;;1999.90;999.90;;;6.90;99.90;;;;;;5072114;28;20453;-72
2022/03/15 04:04:55;;;;;;;1999.90;999.90;;;6.90;99.90;;;;;;5071902;28;20698;-72
2022/03/15 04:07:21;;;;;;;1999.90;999.90;;;6.80;99.90;;;;;;5072149;28;20207;-72
2022/03/15 04:09:47;;;;;;;1999.90;999.90;;;6.70;99.90;;;;;;5072120;28;20167;-71
2022/03/15 04:12:13;;;;;;;1999.90;999.90;;;6.70;99.90;;;;;;5072130;28;20273;-71
2022/03/15 04:14:39;;;;;;;1999.90;999.90;;;6.70;99.90;;;;;;5071745;28;20195;-72
2022/03/15 04:17:07;;;;;;;1999.90;999.90;;;6.60;99.90;;;;;;5072025;28;20441;-71
2022/03/15 04:19:32;;;;;;;1999.90;999.90;;;6.70;99.90;;;;;;5071167;28;20261;-71
2022/03/15 04:21:58;;;;;;;1999.90;999.90;;;6.60;99.90;;;;;;5071897;28;20618;-72
2022/03/15 04:24:25;;;;;;;1999.90;999.90;;;6.40;99.90;;;;;;5071733;28;20416;-71
2022/03/15 04:26:51;;;;;;;1999.90;999.90;;;6.30;99.90;;;;;;5071939;28;20421;-72
2022/03/15 04:29:17;;;;;;;1999.90;999.90;;;6.30;99.90;;;;;;5071973;28;20417;-71
2022/03/15 04:31:43;;;;;;;1999.90;999.90;;;6.30;99.90;;;;;;5072018;28;20429;-70
2022/03/15 04:34:08;;;;;;;1999.90;999.90;;;6.30;99.90;;;;;;5071629;28;20175;-71
2022/03/15 04:36:35;;;;;;;1999.90;999.90;;;6.20;99.90;;;;;;5071944;28;20200;-72
2022/03/15 04:39:02;;;;;;;1999.90;999.90;;;6.30;99.90;;;;;;5071958;28;20167;-71
2022/03/15 04:41:28;;;;;;;1999.90;999.90;;;6.40;99.90;;;;;;5086859;22;20517;-72
2022/03/15 04:43:54;;;;;;;1999.90;999.90;;;6.50;99.90;;;;;;5071772;28;20844;-72
2022/03/15 04:46:20;;;;;;;1999.90;999.90;;;6.50;99.90;;;;;;5071551;28;20171;-72
2022/03/15 04:48:45;;;;;;;1999.90;999.90;;;6.60;99.90;;;;;;5071672;28;20389;-72
2022/03/15 04:51:12;;;;;;;1999.90;999.90;;;6.60;99.90;;;;;;5071603;28;20174;-71
2022/03/15 04:53:37;;;;;;;1999.90;999.90;;;6.70;99.90;;;;;;5071846;28;20183;-72
2022/03/15 04:56:03;;;;;;;1999.90;999.90;;;6.60;99.90;;;;;;5071476;28;20408;-71
2022/03/15 04:58:29;;;;;;;1999.90;999.90;;;6.50;99.90;;;;;;5071714;28;20167;-72
2022/03/15 05:00:55;;;;;;;1999.90;999.90;;;6.50;99.90;;;;;;5071669;28;20406;-72
2022/03/15 05:03:20;;;;;;;1999.90;999.90;;;6.40;99.90;;;;;;5071410;28;20240;-71
2022/03/15 05:05:46;;;;;;;1999.90;999.90;;;6.50;99.90;;;;;;5071496;28;20167;-72
2022/03/15 05:08:12;;;;;;;1999.90;999.90;;;6.50;99.90;;;;;;5071645;28;20163;-71
2022/03/15 05:13:23;;;;;;;1999.90;999.90;;;6.60;99.90;;;;;;5071860;28;20407;-72
2022/03/15 05:15:49;;;;;;;1999.90;999.90;;;6.50;99.90;;;;;;5071190;28;20543;-72
2022/03/15 05:18:14;;;;;;;1999.90;999.90;;;6.50;99.90;;;;;;5071525;28;20484;-71
2022/03/15 05:20:40;;;;;;;1999.90;999.90;;;6.50;99.90;;;;;;5071453;28;20654;-71
2022/03/15 05:23:05;;;;;;;1999.90;999.90;;;6.40;99.90;;;;;;5071305;28;20210;-71
2022/03/15 05:25:31;;;;;;;1999.90;999.90;;;6.40;99.90;;;;;;5071224;28;20241;-71
2022/03/15 05:27:57;;;;;;;1999.90;999.90;;;6.50;99.90;;;;;;5071433;28;20167;-71
2022/03/15 05:30:23;;;;;;;1999.90;999.90;;;6.50;99.90;;;;;;5072894;28;20476;-71
2022/03/15 05:32:49;;;;;;;1999.90;999.90;;;6.50;99.90;;;;;;5075208;28;20197;-71
2022/03/15 05:35:15;;;;;;;1999.90;999.90;;;6.50;99.90;;;;;;5074987;28;20924;-71
2022/03/15 05:37:41;;;;;;;1999.90;999.90;;;6.50;99.90;;;;;;5075080;28;20595;-71
2022/03/15 05:40:07;;;;;;;1999.90;999.90;;;6.50;99.90;;;;;;5074930;28;20445;-71
2022/03/15 05:42:33;;;;;;;1999.90;999.90;;;6.60;99.90;;;;;;5074593;28;20214;-71
2022/03/15 05:44:59;;;;;;;1999.90;999.90;;;6.50;99.90;;;;;;5074565;28;20402;-71
2022/03/15 05:47:24;;;;;;;1999.90;999.90;;;6.40;99.90;;;;;;5075037;28;20175;-71
2022/03/15 05:49:50;;;;;;;1999.90;999.90;;;6.40;99.90;;;;;;5074763;28;20560;-71
2022/03/15 05:52:16;;;;;;;1999.90;999.90;;;6.40;99.90;;;;;;5074598;28;20194;-71
2022/03/15 05:54:41;;;;;;;1999.90;999.90;;;6.40;99.90;;;;;;5074362;28;20179;-72
2022/03/15 05:57:07;;;;;;;1999.90;999.90;;;6.50;99.90;;;;;;5074596;28;20174;-72
2022/03/15 05:59:33;;;;;;;1999.90;999.90;;;6.50;99.90;;;;;;5074503;28;20254;-72
2022/03/15 06:01:58;;;;;;;1999.90;999.90;;;6.60;99.90;;;;;;5074436;28;20276;-72
2022/03/15 06:04:26;;;;;;;1999.90;999.90;;;6.60;99.90;;;;;;5074442;28;20249;-72
2022/03/15 06:06:56;;;;;;;1999.90;999.90;;;6.60;99.90;;;;;;5074347;28;20644;-72
2022/03/15 06:09:23;;;;;;;1999.90;999.90;;;6.60;99.90;;;;;;5074456;28;20452;-72
2022/03/15 06:11:49;;;;;;;1999.90;999.90;;;6.60;99.90;;;;;;5074256;28;20508;-72
2022/03/15 06:14:15;;;;;;;1999.90;999.90;;;6.70;99.90;;;;;;5074073;28;21151;-72
2022/03/15 06:16:40;;;;;;;1999.90;999.90;;;6.70;99.90;;;;;;5074458;28;20413;-71
2022/03/15 06:19:06;;;;;;;1999.90;999.90;;;6.70;99.90;;;;;;5074247;28;20178;-72
2022/03/15 06:21:31;;;;;;;1999.90;999.90;;;6.70;99.90;;;;;;5073979;28;20195;-71
2022/03/15 06:23:57;;;;;;;1999.90;999.90;;;6.80;99.90;;;;;;5074142;28;20175;-72
2022/03/15 06:26:22;;;;;;;1999.90;999.90;;;6.80;99.90;;;;;;5073939;28;20243;-71
2022/03/15 06:28:48;;;;;;;1999.90;999.90;;;6.90;99.90;;;;;;5074018;28;20168;-72
2022/03/15 06:31:14;;;;;;;1999.90;999.90;;;6.90;99.90;;;;;;5074010;28;20199;-71
2022/03/15 06:33:42;;;;;;;1999.90;999.90;;;7.00;99.90;;;;;;5073922;28;20592;-71
2022/03/15 06:36:11;;;;;;;1999.90;999.90;;;7.10;99.90;;;;;;5073654;28;20409;-71
2022/03/15 06:38:43;;;;;;;1999.90;999.90;;;7.10;99.90;;;;;;5073902;28;20538;-71
2022/03/15 06:41:11;;;;;;;1999.90;999.90;;;7.20;99.90;;;;;;5073012;28;20498;-72
2022/03/15 06:43:40;;;;;;;1999.90;999.90;;;7.20;99.90;;;;;;5073738;28;20449;-72
2022/03/15 06:46:07;;;;;;;1999.90;999.90;;;7.20;99.90;;;;;;5073403;28;20401;-71
2022/03/15 06:48:34;;;;;;;1999.90;999.90;;;7.20;99.90;;;;;;5073823;28;20401;-72
2022/03/15 06:50:59;;;;;;;1999.90;999.90;;;7.30;99.90;;;;;;5073565;28;20463;-71
2022/03/15 06:53:25;;;;;;;1999.90;999.90;;;7.30;99.90;;;;;;5073656;28;20441;-71
2022/03/15 06:55:50;;;;;;;1999.90;999.90;;;7.40;99.90;;;;;;5073142;28;20169;-71
2022/03/15 06:58:17;;;;;;;1999.90;999.90;;;7.40;99.90;;;;;;5073461;28;20250;-70
2022/03/15 07:00:43;;;;;;;1999.90;999.90;;;7.40;99.90;;;;;;5073643;28;20652;-72
2022/03/15 07:03:09;;;;;;;1999.90;999.90;;;7.50;99.90;;;;;;5073209;28;20507;-71
2022/03/15 07:05:34;;;;;;;1999.90;999.90;;;7.50;99.90;;;;;;5073017;28;20455;-71
2022/03/15 07:08:00;;;;;;;1999.90;999.90;;;7.50;99.90;;;;;;5073323;28;20199;-72
2022/03/15 07:10:25;;;;;;;1999.90;999.90;;;7.50;99.90;;;;;;5073178;28;20171;-71
2022/03/15 07:12:51;;;;;;;1999.90;999.90;;;7.50;99.90;;;;;;5073029;28;20249;-71
2022/03/15 07:15:17;;;;;;;1999.90;999.90;;;7.60;99.90;;;;;;5072872;28;20640;-70
2022/03/15 07:17:57;;;;;;;1999.90;999.90;;;7.70;99.90;;;;;;5073047;28;20187;-72
2022/03/15 07:20:24;;;;;;;1999.90;999.90;;;7.70;99.90;;;;;;5073101;28;20574;-71
2022/03/15 07:22:51;;;;;;;1999.90;999.90;;;7.70;99.90;;;;;;5072782;28;20447;-72
2022/03/15 07:25:17;;;;;;;1999.90;999.90;;;7.70;99.90;;;;;;5072875;28;20434;-70
2022/03/15 07:27:43;;;;;;;1999.90;999.90;;;7.80;99.90;;;;;;5072927;28;20464;-72
2022/03/15 07:30:09;;;;;;;1999.90;999.90;;;7.90;99.90;;;;;;5072875;28;20167;-72
2022/03/15 07:32:35;;;;;;;1999.90;999.90;;;7.90;99.90;;;;;;5072957;28;20240;-72
2022/03/15 07:35:00;;;;;;;1999.90;999.90;;;8.00;99.90;;;;;;5072418;28;20410;-72
2022/03/15 07:37:26;;;;;;;1999.90;999.90;;;8.10;99.90;;;;;;5072987;28;20405;-72
2022/03/15 07:39:52;;;;;;;1999.90;999.90;;;8.20;99.90;;;;;;5072635;28;20169;-71
2022/03/15 07:42:18;;;;;;;1999.90;999.90;;;8.30;99.90;;;;;;5072327;28;20239;-71
2022/03/15 07:44:44;;;;;;;1999.90;999.90;;;8.30;99.90;;;;;;5072784;28;20177;-71
2022/03/15 07:47:10;;;;;;;1999.90;999.90;;;8.20;99.90;;;;;;5072467;28;20970;-71
2022/03/15 07:49:36;;;;;;;1999.90;999.90;;;8.20;99.90;;;;;;5072397;28;20164;-71
2022/03/15 07:52:03;;;;;;;1999.90;999.90;;;8.10;99.90;;;;;;5072347;28;20425;-71
2022/03/15 07:54:28;;;;;;;1999.90;999.90;;;8.10;99.90;;;;;;5072128;28;20811;-72
2022/03/15 07:56:54;;;;;;;1999.90;999.90;;;8.20;99.90;;;;;;5072363;28;20408;-71
2022/03/15 07:59:19;;;;;;;1999.90;999.90;;;8.10;99.90;;;;;;5072332;28;20216;-71
2022/03/15 08:01:45;;;;;;;1999.90;999.90;;;8.00;99.90;;;;;;5072151;28;20578;-71
2022/03/15 08:04:11;;;;;;;1999.90;999.90;;;8.10;99.90;;;;;;5071922;28;20179;-71
2022/03/15 08:06:36;;;;;;;1999.90;999.90;;;8.10;99.90;;;;;;5072190;28;20164;-71
2022/03/15 08:09:03;;;;;;;1999.90;999.90;;;8.20;99.90;;;;;;5072146;28;20247;-71
2022/03/15 08:11:29;;;;;;;1999.90;999.90;;;8.30;99.90;;;;;;5072176;28;20627;-71
2022/03/15 08:13:56;;;;;;;1999.90;999.90;;;8.30;99.90;;;;;;5072219;28;20406;-71
2022/03/15 08:16:22;;;;;;;1999.90;999.90;;;8.40;99.90;;;;;;5071896;28;20419;-71
2022/03/15 08:18:51;;;;;;;1999.90;999.90;;;8.50;99.90;;;;;;5072068;28;20406;-71
2022/03/15 08:21:18;;;;;;;1999.90;999.90;;;8.60;99.90;;;;;;5071910;28;20432;-71
2022/03/15 08:23:44;;;;;;;1999.90;999.90;;;8.70;99.90;;;;;;5071967;28;20449;-71
2022/03/15 08:26:10;;;;;;;1999.90;999.90;;;8.80;99.90;;;;;;5071775;28;20414;-71
2022/03/15 08:28:36;;;;;;;1999.90;999.90;;;8.90;99.90;;;;;;5072003;28;20399;-71
2022/03/15 08:31:02;;;;;;;1999.90;999.90;;;8.90;99.90;;;;;;5071972;28;20166;-71
2022/03/15 08:33:27;;;;;;;1999.90;999.90;;;9.00;99.90;;;;;;5071885;28;20163;-71
2022/03/15 08:35:53;;;;;;;1999.90;999.90;;;9.00;99.90;;;;;;5060446;28;20457;-71
2022/03/15 08:38:19;;;;;;;1999.90;999.90;;;9.10;99.90;;;;;;5055449;28;20231;-71
2022/03/15 08:40:45;;;;;;;1999.90;999.90;;;9.20;99.90;;;;;;5057146;28;20182;-71
2022/03/15 08:43:11;;;;;;;1999.90;999.90;;;9.20;99.90;;;;;;5051498;28;20209;-71
2022/03/15 08:45:37;;;;;;;1999.90;999.90;;;9.20;99.90;;;;;;5051158;28;20404;-71
2022/03/15 08:48:03;;;;;;;1999.90;999.90;;;9.30;99.90;;;;;;5051730;28;20408;-71
2022/03/15 08:50:30;;;;;;;1999.90;999.90;;;9.30;99.90;;;;;;5051634;28;20435;-71
2022/03/15 08:52:55;;;;;;;1999.90;999.90;;;9.30;99.90;;;;;;5051688;28;20429;-71
2022/03/15 08:55:22;;;;;;;1999.90;999.90;;;9.40;99.90;;;;;;5051220;28;20451;-71
2022/03/15 08:57:48;;;;;;;1999.90;999.90;;;9.40;99.90;;;;;;5051585;28;20644;-71
2022/03/15 09:00:15;;;;;;;1999.90;999.90;;;9.40;99.90;;;;;;5051663;28;20791;-71
2022/03/15 09:02:41;;;;;;;1999.90;999.90;;;9.40;99.90;;;;;;5051470;28;20818;-71
2022/03/15 09:05:07;;;;;;;1999.90;999.90;;;9.50;99.90;;;;;;5052505;28;20408;-71
2022/03/15 09:07:33;;;;;;;1999.90;999.90;;;9.60;99.90;;;;;;5055756;28;20169;-71
2022/03/15 09:09:58;;;;;;;1999.90;999.90;;;9.60;99.90;;;;;;5055523;28;20770;-71
2022/03/15 09:12:24;;;;;;;1999.90;999.90;;;9.60;99.90;;;;;;5055587;28;20226;-71
2022/03/15 09:14:50;;;;;;;1999.90;999.90;;;9.70;99.90;;;;;;5055196;28;20253;-71
2022/03/15 09:17:16;;;;;;;1999.90;999.90;;;9.70;99.90;;;;;;5055304;28;20782;-71
2022/03/15 09:19:42;;;;;;;1999.90;999.90;;;9.60;99.90;;;;;;5055253;28;20217;-71
2022/03/15 09:22:08;;;;;;;1999.90;999.90;;;9.70;99.90;;;;;;5055013;28;20459;-71
2022/03/15 09:24:36;;;;;;;1999.90;999.90;;;9.70;99.90;;;;;;5055093;28;20409;-71
2022/03/15 09:27:02;;;;;;;1999.90;999.90;;;9.70;99.90;;;;;;5055243;28;20507;-71
2022/03/15 09:29:28;;;;;;;1999.90;999.90;;;9.60;99.90;;;;;;5055186;28;20442;-71
2022/03/15 09:31:54;;;;;;;1999.90;999.90;;;9.60;99.90;;;;;;5054946;28;20436;-71
2022/03/15 09:34:22;;;;;;;1999.90;999.90;;;9.60;99.90;;;;;;5054704;28;20178;-71
2022/03/15 09:36:48;;;;;;;1999.90;999.90;;;9.70;99.90;;;;;;5054955;28;20226;-71
2022/03/15 09:39:14;;;;;;;1999.90;999.90;;;9.70;99.90;;;;;;5054863;28;20404;-72
2022/03/15 09:41:41;;;;;;;1999.90;999.90;;;9.80;99.90;;;;;;5054651;28;20449;-71
2022/03/15 09:44:09;;;;;;;1999.90;999.90;;;9.80;99.90;;;;;;5054526;28;20422;-71
2022/03/15 09:46:42;;;;;;;1999.90;999.90;;;9.80;99.90;;;;;;5054766;28;20397;-72
2022/03/15 09:49:08;;;;;;;1999.90;999.90;;;9.90;99.90;;;;;;5054729;28;20409;-71
2022/03/15 09:51:37;;;;;;;1999.90;999.90;;;9.90;99.90;;;;;;5054634;28;20448;-71
2022/03/15 09:54:06;;;;;;;1999.90;999.90;;;10.00;99.90;;;;;;5054451;28;20503;-71
2022/03/15 09:56:38;;;;;;;1999.90;999.90;;;10.00;99.90;;;;;;5054599;28;20408;-71
2022/03/15 09:59:16;;;;;;;1999.90;999.90;;;10.10;99.90;;;;;;5054519;28;20466;-71
2022/03/15 10:01:44;;;;;;;1999.90;999.90;;;10.00;99.90;;;;;;5054358;28;20929;-71
2022/03/15 10:04:10;;;;;;;1999.90;999.90;;;10.00;99.90;;;;;;5054200;28;20932;-71
2022/03/15 10:06:37;;;;;;;1999.90;999.90;;;10.00;99.90;;;;;;5054488;28;20558;-71
2022/03/15 10:09:06;;;;;;;1999.90;999.90;;;9.90;99.90;;;;;;5054416;28;20610;-72
2022/03/15 10:11:32;;;;;;;1999.90;999.90;;;9.90;99.90;;;;;;5054192;28;20463;-71
2022/03/15 10:13:58;;;;;;;1999.90;999.90;;;9.90;99.90;;;;;;5054078;28;20410;-71
2022/03/15 10:16:41;;;;;;;1999.90;999.90;;;9.90;99.90;;;;;;5052818;28;20417;-71
2022/03/15 10:19:10;;;;;;;1999.90;999.90;;;9.80;99.90;;;;;;5054230;28;20490;-71
2022/03/15 10:21:44;;;;;;;1999.90;999.90;;;9.70;99.90;;;;;;5053919;28;20424;-72
2022/03/15 10:24:10;;;;;;;1999.90;999.90;;;9.60;99.90;;;;;;5053788;28;20426;-71
2022/03/15 10:26:40;;;;;;;1999.90;999.90;;;9.60;99.90;;;;;;5054002;28;20404;-71
2022/03/15 10:29:07;;;;;;;1999.90;999.90;;;9.70;99.90;;;;;;5053810;28;20473;-72
2022/03/15 10:31:33;;;;;;;1999.90;999.90;;;9.70;99.90;;;;;;5053376;28;20408;-75
2022/03/15 10:34:01;;;;;;;1999.90;999.90;;;9.70;99.90;;;;;;5063125;28;20189;-73
2022/03/15 10:36:36;;;;;;;1999.90;999.90;;;9.80;99.90;;;;;;5073178;28;20420;-72
2022/03/15 10:39:03;;;;;;;1999.90;999.90;;;10.00;99.90;;;;;;5072384;28;20548;-74
2022/03/15 10:44:03;;;;;;;1999.90;999.90;;;10.20;99.90;;;;;;5092300;28;20486;-73
2022/03/15 10:46:29;;;;;;;1999.90;999.90;;;10.20;99.90;;;;;;5093555;28;20400;-73
2022/03/15 10:49:03;;;;;;;1999.90;999.90;;;10.30;99.90;;;;;;5075067;28;20473;-75
2022/03/15 10:51:29;;;;;;;1999.90;999.90;;;10.50;99.90;;;;;;5095116;28;20487;-75
2022/03/15 10:54:04;;;;;;;1999.90;999.90;;;10.60;99.90;;;;;;5100334;28;20444;-71
2022/03/15 10:56:30;;;;;;;1999.90;999.90;;;10.70;99.90;;;;;;5097313;28;20448;-71
2022/03/15 10:59:05;;;;;;;1999.90;999.90;;;10.70;99.90;;;;;;5093308;28;20439;-73
2022/03/15 11:01:39;;;;;;;1999.90;999.90;;;10.80;99.90;;;;;;5074709;28;20793;-71
2022/03/15 11:04:07;;;;;;;1999.90;999.90;;;10.90;99.90;;;;;;5092386;28;20427;-73
2022/03/15 11:06:47;;;;;;;1999.90;999.90;;;10.90;99.90;;;;;;5092789;28;20396;-73
2022/03/15 11:09:20;;;;;;;1999.90;999.90;;;10.90;99.90;;;;;;5092626;28;20405;-73
2022/03/15 11:11:54;;;;;;;1999.90;999.90;;;10.90;99.90;;;;;;5093626;28;20396;-73
2022/03/15 11:14:38;;;;;;;1999.90;999.90;;;11.00;99.90;;;;;;5094650;28;20399;-75
2022/03/15 11:17:12;;;;;;;1999.90;999.90;;;11.10;99.90;;;;;;5094151;28;20841;-71
2022/03/15 11:19:49;;;;;;;1999.90;999.90;;;11.10;99.90;;;;;;5092293;28;20790;-71
2022/03/15 11:22:23;;;;;;;1999.90;999.90;;;11.10;99.90;;;;;;5092742;28;20446;-72
2022/03/15 11:25:15;;;;;;;1999.90;999.90;;;11.10;99.90;;;;;;5092443;28;20902;-73
2022/03/15 11:27:42;;;;;;;1999.90;999.90;;;11.00;99.90;;;;;;5092702;28;20762;-74
2022/03/15 11:30:11;;;;;;;1999.90;999.90;;;11.00;99.90;;;;;;5092783;28;20402;-71
2022/03/15 11:32:37;;;;;;;1999.90;999.90;;;11.00;99.90;;;;;;5092281;28;20504;-70
2022/03/15 11:35:05;;;;;;;1999.90;999.90;;;11.10;99.90;;;;;;5092509;28;20768;-70
2022/03/15 11:37:31;;;;;;;1999.90;999.90;;;11.10;99.90;;;;;;5092617;28;20410;-70
2022/03/15 11:39:58;;;;;;;1999.90;999.90;;;11.20;99.90;;;;;;5091853;28;20812;-69
2022/03/15 11:42:27;;;;;;;1999.90;999.90;;;11.10;99.90;;;;;;5092785;28;20640;-71
2022/03/15 11:45:07;;;;;;;1999.90;999.90;;;11.20;99.90;;;;;;5092163;28;20403;-70
2022/03/15 11:47:50;;;;;;;1999.90;999.90;;;11.10;99.90;;;;;;5092179;28;20428;-70
2022/03/15 11:50:35;;;;;;;1999.90;999.90;;;11.10;99.90;;;;;;5092668;28;20395;-71
2022/03/15 11:53:17;;;;;;;1999.90;999.90;;;11.10;99.90;;;;;;5092861;28;20766;-71
2022/03/15 11:55:55;;;;;;;1999.90;999.90;;;11.10;99.90;;;;;;5091125;28;20871;-69
2022/03/15 11:58:26;;;;;;;1999.90;999.90;;;11.00;99.90;;;;;;5092202;28;20404;-69
2022/03/15 12:00:53;;;;;;;1999.90;999.90;;;11.00;99.90;;;;;;5091738;28;20503;-69
2022/03/15 12:03:21;;;;;;;1999.90;999.90;;;11.00;99.90;;;;;;5091591;28;20448;-69
2022/03/15 12:05:52;;;;;;;1999.90;999.90;;;11.00;99.90;;;;;;5091601;28;20429;-69
2022/03/15 12:08:21;;;;;;;1999.90;999.90;;;11.00;99.90;;;;;;5092149;28;20407;-69
2022/03/15 12:10:56;;;;;;;1999.90;999.90;;;11.10;99.90;;;;;;5091465;28;20408;-69